My webcam more information My webcam


Thunder radar more information blitzortung!


Rain radar more information rain snow radar


Visit our other weather sites:

Template documentation
and downloads

And another site


You find our weather info also at:

Weather Underground

AWEKAS

Citizen Weather Observer Program (CWOP)

HAMweather, WeatherForYou, PWS Weather


Weather Underground History page Text

Daily Summary for August 20, 2018 Units:  English    Metric   Both
« Previous Day
Next Day »
Daily Weekly Monthly Yearly Custom
  Current: High: Low: Average:
Temperature: 68 °F TemperatureF °F 65.1 °F 64.8 °F
Dew Point: 65.8 °F DewpointF °F 64.2 °F 63.8 °F
Humidity: 93 % Humidity % 93 % 95 %
Wind Speed: 2.9 mph WindSpeedMPH mph 0 mph 1.1 mph
Wind Gust: 7 mph WindSpeedGustMPH mph - -
Wind:East - - ENE
Pressure: 30.16 in PressureIn in 30.08 in -
Precipitation: 0.13 in      
Historical Graphs
 
 
Tabular Data for August 20, 2018
Time Temperature Dew Point Pressure Wind Wind Speed Wind Gust Humidity Rainfall Rate (Hourly)
TemperatureF °F DewpointF °F PressureIn in Calm     Humidity % HourlyPrecipIn in
00:03 65.8 °F 64.6 °F 30.08 in ENE 2.9 mph 4 mph 96 % 0 in
00:13 65.8 °F 64.6 °F 30.08 in NNE 2 mph 7 mph 96 % 0.01 in
00:23 65.8 °F 64.9 °F 30.08 in NE 0.9 mph 5 mph 97 % 0.01 in
00:33 65.8 °F 64.9 °F 30.09 in Calm   4 mph 97 % 0.01 in
00:43 65.8 °F 64.9 °F 30.08 in Calm   3 mph 97 % 0.01 in
00:53 65.8 °F 64.9 °F 30.09 in ENE 2.9 mph 6 mph 97 % 0.01 in
01:03 66 °F 65.1 °F 30.09 in NE 0.9 mph 3 mph 97 % 0.01 in
01:13 65.8 °F 64.9 °F 30.09 in ENE 2 mph 3 mph 97 % 0 in
01:23 65.7 °F 64.8 °F 30.09 in Calm   3 mph 97 % 0 in
01:33 65.7 °F 64.8 °F 30.09 in Calm   2 mph 97 % 0 in
01:43 65.8 °F 64.9 °F 30.09 in ENE 2 mph 5 mph 97 % 0 in
01:53 65.7 °F 64.8 °F 30.09 in NNE 2.9 mph 3 mph 97 % 0 in
02:03 65.7 °F 64.8 °F 30.09 in Calm   1 mph 97 % 0 in
02:13 65.7 °F 64.8 °F 30.08 in Calm     97 % 0 in
02:23 65.7 °F 64.8 °F 30.09 in Calm   1 mph 97 % 0 in
02:33 65.7 °F 64.8 °F 30.08 in East 2 mph 3 mph 97 % 0 in
02:43 65.7 °F 64.4 °F 30.08 in Calm   1 mph 96 % 0 in
02:53 65.8 °F 64.6 °F 30.09 in Calm   4 mph 96 % 0 in
03:03 65.7 °F 64.4 °F 30.09 in Calm   4 mph 96 % 0 in
03:13 65.7 °F 64.8 °F 30.09 in Calm   2 mph 97 % 0 in
03:23 65.7 °F 64.8 °F 30.09 in Calm   4 mph 97 % 0 in
03:33 65.7 °F 64.8 °F 30.09 in Calm   5 mph 97 % 0.01 in
03:43 65.5 °F 64.6 °F 30.09 in Calm   2 mph 97 % 0.01 in
03:53 65.5 °F 64.6 °F 30.09 in SE 0.9 mph 5 mph 97 % 0.01 in
04:03 65.5 °F 64.6 °F 30.09 in ENE 0.9 mph 4 mph 97 % 0.01 in
04:13 65.5 °F 64.6 °F 30.09 in Calm   3 mph 97 % 0.01 in
04:23 65.5 °F 64.6 °F 30.09 in ENE 0.9 mph 8 mph 97 % 0.01 in
04:33 65.5 °F 64.6 °F 30.09 in Calm   4 mph 97 % 0 in
04:43 65.5 °F 64.6 °F 30.09 in NNE 2.9 mph 4 mph 97 % 0.01 in
04:53 65.5 °F 64.6 °F 30.09 in ENE 4 mph 6 mph 97 % 0.02 in
05:03 65.5 °F 64.6 °F 30.09 in East 0.9 mph 2 mph 97 % 0.03 in
05:13 65.5 °F 64.6 °F 30.09 in NE 0.9 mph 5 mph 97 % 0.03 in
05:23 65.5 °F 64.6 °F 30.10 in Calm   4 mph 97 % 0.03 in
05:33 65.5 °F 64.6 °F 30.10 in East 2.9 mph 5 mph 97 % 0.04 in
05:43 65.3 °F 64.4 °F 30.10 in Calm   4 mph 97 % 0.03 in
05:53 65.1 °F 64.2 °F 30.10 in ENE 0.9 mph 5 mph 97 % 0.02 in
06:03 65.3 °F 64.4 °F 30.10 in North 2 mph 3 mph 97 % 0.02 in
06:13 65.3 °F 64.4 °F 30.11 in Calm   4 mph 97 % 0.02 in
06:23 65.3 °F 64.4 °F 30.11 in Calm     97 % 0.02 in
06:33 65.5 °F 64.6 °F 30.12 in Calm     97 % 0.01 in
06:43 65.5 °F 64.6 °F 30.12 in Calm     97 % 0.01 in
06:53 65.5 °F 64.6 °F 30.13 in Calm   1 mph 97 % 0.01 in
07:03 65.5 °F 64.6 °F 30.13 in Calm   3 mph 97 % 0 in
07:13 65.5 °F 64.6 °F 30.13 in Calm     97 % 0 in
07:23 65.5 °F 64.6 °F 30.14 in Calm   4 mph 97 % 0 in
07:33 65.5 °F 64.6 °F 30.13 in East 2.9 mph 5 mph 97 % 0 in
07:43 65.5 °F 64.6 °F 30.14 in Calm   1 mph 97 % 0.01 in
07:53 65.5 °F 64.6 °F 30.14 in NE 2 mph 3 mph 97 % 0.01 in
08:03 65.7 °F 64.8 °F 30.14 in NE 2 mph 4 mph 97 % 0.03 in
08:13 65.7 °F 64.8 °F 30.14 in ENE 0.9 mph 2 mph 97 % 0.03 in
08:23 65.7 °F 64.8 °F 30.14 in Calm   2 mph 97 % 0.04 in
08:33 65.7 °F 64.8 °F 30.14 in ENE 4 mph 6 mph 97 % 0.05 in
08:43 65.7 °F 64.8 °F 30.15 in Calm   6 mph 97 % 0.04 in
08:53 65.5 °F 64.6 °F 30.15 in Calm   7 mph 97 % 0.04 in
09:03 65.7 °F 64.8 °F 30.16 in ENE 0.9 mph 3 mph 97 % 0.03 in
09:13 65.7 °F 64.8 °F 30.16 in Calm   5 mph 97 % 0.03 in
09:23 65.5 °F 64.6 °F 30.16 in Calm   4 mph 97 % 0.02 in
09:33 65.7 °F 64.8 °F 30.16 in Calm   4 mph 97 % 0.01 in
09:43 65.8 °F 64.9 °F 30.16 in ESE 2.9 mph 11 mph 97 % 0.01 in
09:53 66.6 °F 65.7 °F 30.17 in ENE 2 mph 2 mph 97 % 0.01 in
10:04 66.7 °F 65.5 °F 30.17 in NE 0.9 mph 6 mph 96 % 0 in
10:14 66.7 °F 65.5 °F 30.17 in East 2 mph 6 mph 96 % 0 in
10:24 66.6 °F 65.3 °F 30.17 in ENE 4 mph 4 mph 96 % 0 in
10:34 66.6 °F 65.3 °F 30.17 in ENE 2.9 mph 4 mph 96 % 0 in
10:44 66.7 °F 65.3 °F 30.17 in East 2 mph 4 mph 95 % 0 in
10:54 66.7 °F 65.3 °F 30.17 in NNE 2.9 mph 7 mph 95 % 0 in
11:04 67.3 °F 65.5 °F 30.16 in NNE 6 mph 12 mph 94 % 0 in
11:14 68 °F 65.8 °F 30.16 in East 2.9 mph 7 mph 93 % 0 in
West Wareham, MA Weather
Compliments of Weather Underground - 4 mb

Script developed by  Jim McMurry - jmcmurry@mwt.net Adapted for the template by  Wim van der Kuil - Leuven-Template.eu

Equipment we use:

Weather-station
Davis Vantage Vue

Weather-program
Meteobridge

Weather-server
TP-LINK TL-MR3020

Provider
Web Hosting By

Davis Vantage Vue

Meteobridge

TP-LINK TL-MR3020

Web Hosting By